Coral Favia — PHKM — position and weather

sailwx.info

Track history (hours):
 
Tides and Currents Weather Stations Pressure Air Temp Water Temp Dewpoint Dewpoint Depression Visibility Wind Speed Wind Dir Waves Ship Positions

Coral Favia

Last reported at 2014-Dec-19 10:28 UTC. Time now 2014-Dec-19 10:45 UTC.
Position N 54°42' W 001°02'.

Length 100 m; beam 17 m.

Type: Tanker. MMSI: 244627000.

Date/timePositionNaut miles runAvg speedWind from/ knotsBaromVisibWave heightAir tempDewpointWater temp
2014-Dec-19 10:28N 54°42' W 001°02'0 0.0
2014-Dec-19 09:25N 54°42' W 001°02'0 0.0
2014-Dec-19 08:31N 54°42' W 001°02'0 0.0
2014-Dec-19 07:28N 54°42' W 001°02'0 0.0
2014-Dec-19 06:31N 54°42' W 001°02'0 0.0
2014-Dec-19 05:31N 54°42' W 001°02'0 0.0
2014-Dec-19 04:31N 54°42' W 001°02'0 0.0
2014-Dec-19 03:31N 54°42' W 001°02'0 0.0
2014-Dec-19 02:31N 54°42' W 001°02'0 0.0
2014-Dec-19 01:31N 54°42' W 001°02'0 0.0
2014-Dec-19 00:31N 54°42' W 001°02'0 0.0
2014-Dec-18 23:28N 54°42' W 001°02'0 0.0
2014-Dec-18 22:31N 54°42' W 001°02'0 0.0
2014-Dec-18 21:31N 54°42' W 001°02'0 0.0
2014-Dec-18 20:31N 54°42' W 001°02'0 0.0
2014-Dec-18 19:31N 54°42' W 001°02'0 0.0
2014-Dec-18 18:25N 54°42' W 001°02'0 0.0
2014-Dec-18 17:28N 54°42' W 001°02'0 0.0
2014-Dec-18 16:31N 54°42' W 001°02'0 0.0
2014-Dec-18 15:31N 54°42' W 001°02'0 0.0
2014-Dec-18 14:31N 54°42' W 001°02'0 0.0
2014-Dec-18 13:19N 54°42' W 001°02'0 0.0
2014-Dec-18 12:19N 54°42' W 001°02'0 0.0
2014-Dec-18 11:25N 54°42' W 001°02'0 0.0
2014-Dec-18 10:22N 54°42' W 001°02'0 0.0
2014-Dec-18 09:33N 54°42' W 001°02'1 0.9
2014-Dec-18 08:33N 54°41' W 001°01'2512.6
2014-Dec-18 06:34N 54°30' W 000°23'1514.5
2014-Dec-18 05:33N 54°19' W 000°06'1414.4
2014-Dec-18 04:33N 54°08' E 000°10'1414.0
2014-Dec-18 03:33N 53°57' E 000°26'1413.5
2014-Dec-18 02:33N 53°47' E 000°41'4313.7
2014-Dec-17 23:24N 53°11' E 001°20'1315.1
2014-Dec-17 22:34N 53°03' E 001°36'1514.8
2014-Dec-17 21:33N 52°52' E 001°53'8513.3
2014-Dec-17 15:08N 51°59' E 003°42'3 2.7
2014-Dec-17 14:10N 51°56' E 003°43'0 0.0
2014-Dec-17 13:10N 51°56' E 003°43'0 0.0
2014-Dec-17 12:28N 51°56' E 003°43'0 0.0
2014-Dec-17 11:13N 51°56' E 003°43'0 0.0
2014-Dec-17 10:13N 51°56' E 003°43'0 0.0
2014-Dec-17 08:16N 51°56' E 003°43'0 0.2
2014-Dec-17 07:33N 51°56' E 003°43'8 7.9
2014-Dec-17 06:33N 52°03' E 003°50'8 7.9
2014-Dec-17 05:33N 51°60' E 004°02'8 7.6
2014-Dec-17 04:33N 51°55' E 004°12'0 0.0
2014-Dec-17 03:33N 51°55' E 004°12'0 0.0
2014-Dec-17 02:33N 51°55' E 004°12'0 0.0
2014-Dec-17 01:30N 51°55' E 004°12'0 0.0
2014-Dec-17 00:30N 51°55' E 004°12'0 0.0
2014-Dec-16 23:27N 51°55' E 004°12'0 0.0
2014-Dec-16 22:33N 51°55' E 004°12'0 0.0
2014-Dec-16 21:33N 51°55' E 004°12'0 0.0
2014-Dec-16 20:09N 51°55' E 004°12'0 0.0
2014-Dec-16 19:15N 51°55' E 004°12'0 0.0
2014-Dec-16 18:27N 51°55' E 004°12'0 0.0
2014-Dec-16 17:33N 51°55' E 004°12'0 0.0
2014-Dec-16 16:33N 51°55' E 004°12'0 0.0
2014-Dec-16 15:33N 51°55' E 004°12'0 0.0
2014-Dec-16 14:33N 51°55' E 004°12'0 0.0
2014-Dec-16 13:27N 51°55' E 004°12'0 0.0
2014-Dec-16 12:27N 51°55' E 004°12'0 0.0
2014-Dec-16 11:30N 51°55' E 004°12'0 0.0
2014-Dec-16 10:27N 51°55' E 004°12'0 0.0
2014-Dec-16 09:33N 51°55' E 004°12'0 0.0
2014-Dec-16 08:30N 51°55' E 004°12'0 0.0
2014-Dec-16 07:27N 51°55' E 004°12'0 0.0
2014-Dec-16 06:27N 51°55' E 004°12'0 0.0
2014-Dec-16 05:24N 51°55' E 004°12'0 0.0
2014-Dec-16 03:24N 51°55' E 004°12'0 0.0
2014-Dec-16 02:20N 51°55' E 004°12'0 0.0
2014-Dec-16 01:06N 51°55' E 004°12'0 0.0
2014-Dec-15 23:18N 51°55' E 004°12'0 0.0
2014-Dec-15 22:33N 51°55' E 004°12'0 0.0
2014-Dec-15 21:21N 51°55' E 004°12'0 0.0
2014-Dec-15 20:24N 51°55' E 004°12'3 3.5
2014-Dec-15 19:33N 51°57' E 004°09'1111.5
2014-Dec-15 18:33N 51°60' E 003°50'5 5.0
2014-Dec-15 17:31N 51°56' E 003°44'0 0.1
2014-Dec-15 16:32N 51°56' E 003°44'0 0.0
2014-Dec-15 15:23N 51°56' E 003°44'0 0.0
2014-Dec-15 14:07N 51°56' E 003°44'0 0.0
2014-Dec-15 11:17N 51°56' E 003°44'0 0.0
2014-Dec-15 10:05N 51°56' E 003°44'0 0.0
2014-Dec-15 09:22N 51°56' E 003°44'0 0.0
2014-Dec-15 07:22N 51°56' E 003°44'0 0.0
2014-Dec-15 06:29N 51°56' E 003°44'0 0.0
2014-Dec-15 05:23N 51°56' E 003°44'0 0.0
2014-Dec-15 04:17N 51°56' E 003°44'0 0.0
2014-Dec-15 03:23N 51°56' E 003°44'0 0.0
2014-Dec-15 02:23N 51°56' E 003°44'0 0.0
2014-Dec-15 01:29N 51°56' E 003°44'0 0.0
2014-Dec-15 00:28N 51°56' E 003°44'0 0.0
2014-Dec-14 23:31N 51°56' E 003°44'0 0.0
2014-Dec-14 22:28N 51°56' E 003°44'0 0.0
2014-Dec-14 21:04N 51°56' E 003°44'0 0.0
2014-Dec-14 19:10N 51°56' E 003°44'0 0.0
2014-Dec-14 18:22N 51°56' E 003°44'0 0.0
2014-Dec-14 17:22N 51°56' E 003°44'0 0.0
2014-Dec-14 16:23N 51°56' E 003°44'0 0.0
2014-Dec-14 15:28N 51°56' E 003°44'0 0.0
2014-Dec-14 14:28N 51°56' E 003°44'0 0.0
2014-Dec-14 12:11N 51°56' E 003°44'0 0.0
2014-Dec-14 11:32N 51°56' E 003°44'0 0.0
2014-Dec-14 10:32N 51°56' E 003°44'0 0.0
2014-Dec-14 09:26N 51°56' E 003°44'0 0.0
2014-Dec-14 08:26N 51°56' E 003°44'0 0.0
2014-Dec-14 07:29N 51°56' E 003°44'0 0.0
2014-Dec-14 06:22N 51°56' E 003°44'0 0.0
2014-Dec-14 05:32N 51°56' E 003°44'0 0.0
2014-Dec-14 04:31N 51°56' E 003°44'0 0.1
2014-Dec-14 03:31N 51°56' E 003°44'0 0.1
2014-Dec-14 02:25N 51°56' E 003°44'0 0.0
2014-Dec-14 01:25N 51°56' E 003°44'0 0.0
2014-Dec-13 23:31N 51°56' E 003°44'0 0.0
2014-Dec-13 21:11N 51°56' E 003°44'0 0.0
2014-Dec-13 20:10N 51°56' E 003°44'0 0.0
2014-Dec-13 19:25N 51°56' E 003°44'0 0.0
2014-Dec-13 18:28N 51°56' E 003°44'0 0.0
2014-Dec-13 17:28N 51°56' E 003°44'0 0.1
2014-Dec-13 16:28N 51°56' E 003°44'0 0.1
2014-Dec-13 15:31N 51°56' E 003°44'0 0.0
2014-Dec-13 14:23N 51°56' E 003°44'0 0.0
2014-Dec-13 13:04N 51°56' E 003°44'0 0.0
2014-Dec-13 12:25N 51°56' E 003°44'0 0.0
2014-Dec-13 11:32N 51°56' E 003°44'0 0.1
2014-Dec-13 10:20N 51°56' E 003°44'0 0.0
2014-Dec-13 09:07N 51°56' E 003°44'0 0.0
2014-Dec-13 08:08N 51°56' E 003°44'0 0.0
2014-Dec-13 07:14N 51°56' E 003°44'0 0.0
2014-Dec-13 05:04N 51°56' E 003°44'0 0.1
2014-Dec-13 04:08N 51°56' E 003°44'0 0.0
2014-Dec-13 01:10N 51°56' E 003°44'0 0.0
2014-Dec-13 00:29N 51°56' E 003°44'0 0.0
2014-Dec-12 23:31N 51°56' E 003°44'0 0.0
2014-Dec-12 20:26N 51°56' E 003°44'0 0.0
2014-Dec-12 19:26N 51°56' E 003°44'0 0.0
2014-Dec-12 18:28N 51°56' E 003°44'0 0.0
2014-Dec-12 17:08N 51°56' E 003°44'0 0.0
2014-Dec-12 15:07N 51°56' E 003°44'0 0.0
2014-Dec-12 14:16N 51°56' E 003°44'0 0.0
2014-Dec-12 12:31N 51°56' E 003°44'0 0.1
2014-Dec-12 11:20N 51°56' E 003°44'0 0.0
2014-Dec-12 10:26N 51°56' E 003°44'0 0.0
2014-Dec-12 08:08N 51°56' E 003°44'0 0.2
2014-Dec-12 06:22N 51°56' E 003°43'0 0.1
2014-Dec-12 04:31N 51°56' E 003°44'0 0.0
2014-Dec-12 03:19N 51°56' E 003°43'0 0.0
2014-Dec-12 02:10N 51°56' E 003°43'0 0.0
2014-Dec-11 21:19N 51°56' E 003°44'0 0.0
2014-Dec-11 19:31N 51°56' E 003°43'0 0.0
2014-Dec-11 17:10N 51°56' E 003°43'0 0.2
2014-Dec-11 16:05N 51°56' E 003°43'1 0.5
2014-Dec-11 14:32N 51°56' E 003°44'0 0.1
2014-Dec-11 13:11N 51°56' E 003°44'0 0.0
2014-Dec-11 11:11N 51°56' E 003°44'0 0.1
2014-Dec-11 09:11N 51°56' E 003°44'0 0.0
2014-Dec-11 08:32N 51°56' E 003°44'0 0.1
2014-Dec-11 07:29N 51°56' E 003°44'0 0.1
2014-Dec-11 04:32N 51°56' E 003°44'0 0.1
2014-Dec-11 02:20N 51°56' E 003°44'0 0.1
2014-Dec-10 23:23N 51°56' E 003°43'0 0.0
2014-Dec-10 22:17N 51°56' E 003°44'0 0.1
2014-Dec-10 21:29N 51°56' E 003°44'0 0.0
2014-Dec-10 20:32N 51°56' E 003°44'0 0.0
2014-Dec-10 19:23N 51°56' E 003°44'0 0.0
2014-Dec-10 16:29N 51°56' E 003°44'0 0.0
2014-Dec-10 07:33N 51°56' E 003°44'0 0.1
2014-Dec-10 06:33N 51°56' E 003°44'0 0.0
2014-Dec-10 05:33N 51°56' E 003°43'0 0.0
2014-Dec-10 04:33N 51°56' E 003°43'0 0.0
2014-Dec-10 03:33N 51°56' E 003°43'0 0.2
2014-Dec-10 02:33N 51°56' E 003°44'0 0.0
2014-Dec-10 01:33N 51°56' E 003°44'0 0.0
2014-Dec-10 00:30N 51°56' E 003°44'0 0.1
2014-Dec-09 23:31N 51°56' E 003°44'0 0.0
2014-Dec-09 22:32N 51°56' E 003°44'0 0.0
2014-Dec-09 21:33N 51°56' E 003°44'0 0.0
2014-Dec-09 20:27N 51°56' E 003°44'0 0.0
2014-Dec-09 19:33N 51°56' E 003°44'0 0.0
2014-Dec-09 18:33N 51°56' E 003°44'0 0.0
2014-Dec-09 17:10N 51°56' E 003°44'0 0.0
2014-Dec-09 16:28N 51°56' E 003°44'5611.3
2014-Dec-09 11:33N 51°34' E 002°21'1111.3
2014-Dec-09 10:33N 51°26' E 002°09'  
Track history (hours):
 
Tides and Currents Weather Stations Pressure Air Temp Water Temp Dewpoint Dewpoint Depression Visibility Wind Speed Wind Dir Waves Ship Positions

Coral Favia

Last reported at 2014-Dec-19 10:28 UTC. Time now 2014-Dec-19 10:45 UTC.
Position N 54°42' W 001°02'.

Length 100 m; beam 17 m.

Type: Tanker. MMSI: 244627000.

Date/timePositionNaut miles runAvg speedWind from/ knotsBaromVisibWave heightAir tempDewpointWater temp
2014-Dec-19 10:28N 54°42' W 001°02'0 0.0
2014-Dec-19 09:25N 54°42' W 001°02'0 0.0
2014-Dec-19 08:31N 54°42' W 001°02'0 0.0
2014-Dec-19 07:28N 54°42' W 001°02'0 0.0
2014-Dec-19 06:31N 54°42' W 001°02'0 0.0
2014-Dec-19 05:31N 54°42' W 001°02'0 0.0
2014-Dec-19 04:31N 54°42' W 001°02'0 0.0
2014-Dec-19 03:31N 54°42' W 001°02'0 0.0
2014-Dec-19 02:31N 54°42' W 001°02'0 0.0
2014-Dec-19 01:31N 54°42' W 001°02'0 0.0
2014-Dec-19 00:31N 54°42' W 001°02'0 0.0
2014-Dec-18 23:28N 54°42' W 001°02'0 0.0
2014-Dec-18 22:31N 54°42' W 001°02'0 0.0
2014-Dec-18 21:31N 54°42' W 001°02'0 0.0
2014-Dec-18 20:31N 54°42' W 001°02'0 0.0
2014-Dec-18 19:31N 54°42' W 001°02'0 0.0
2014-Dec-18 18:25N 54°42' W 001°02'0 0.0
2014-Dec-18 17:28N 54°42' W 001°02'0 0.0
2014-Dec-18 16:31N 54°42' W 001°02'0 0.0
2014-Dec-18 15:31N 54°42' W 001°02'0 0.0
2014-Dec-18 14:31N 54°42' W 001°02'0 0.0
2014-Dec-18 13:19N 54°42' W 001°02'0 0.0
2014-Dec-18 12:19N 54°42' W 001°02'0 0.0
2014-Dec-18 11:25N 54°42' W 001°02'0 0.0
2014-Dec-18 10:22N 54°42' W 001°02'0 0.0
2014-Dec-18 09:33N 54°42' W 001°02'1 0.9
2014-Dec-18 08:33N 54°41' W 001°01'2512.6
2014-Dec-18 06:34N 54°30' W 000°23'1514.5
2014-Dec-18 05:33N 54°19' W 000°06'1414.4
2014-Dec-18 04:33N 54°08' E 000°10'1414.0
2014-Dec-18 03:33N 53°57' E 000°26'1413.5
2014-Dec-18 02:33N 53°47' E 000°41'4313.7
2014-Dec-17 23:24N 53°11' E 001°20'1315.1
2014-Dec-17 22:34N 53°03' E 001°36'1514.8
2014-Dec-17 21:33N 52°52' E 001°53'8513.3
2014-Dec-17 15:08N 51°59' E 003°42'3 2.7
2014-Dec-17 14:10N 51°56' E 003°43'0 0.0
2014-Dec-17 13:10N 51°56' E 003°43'0 0.0
2014-Dec-17 12:28N 51°56' E 003°43'0 0.0
2014-Dec-17 11:13N 51°56' E 003°43'0 0.0
2014-Dec-17 10:13N 51°56' E 003°43'0 0.0
2014-Dec-17 08:16N 51°56' E 003°43'0 0.2
2014-Dec-17 07:33N 51°56' E 003°43'8 7.9
2014-Dec-17 06:33N 52°03' E 003°50'8 7.9
2014-Dec-17 05:33N 51°60' E 004°02'8 7.6
2014-Dec-17 04:33N 51°55' E 004°12'0 0.0
2014-Dec-17 03:33N 51°55' E 004°12'0 0.0
2014-Dec-17 02:33N 51°55' E 004°12'0 0.0
2014-Dec-17 01:30N 51°55' E 004°12'0 0.0
2014-Dec-17 00:30N 51°55' E 004°12'0 0.0
2014-Dec-16 23:27N 51°55' E 004°12'0 0.0
2014-Dec-16 22:33N 51°55' E 004°12'0 0.0
2014-Dec-16 21:33N 51°55' E 004°12'0 0.0
2014-Dec-16 20:09N 51°55' E 004°12'0 0.0
2014-Dec-16 19:15N 51°55' E 004°12'0 0.0
2014-Dec-16 18:27N 51°55' E 004°12'0 0.0
2014-Dec-16 17:33N 51°55' E 004°12'0 0.0
2014-Dec-16 16:33N 51°55' E 004°12'0 0.0
2014-Dec-16 15:33N 51°55' E 004°12'0 0.0
2014-Dec-16 14:33N 51°55' E 004°12'0 0.0
2014-Dec-16 13:27N 51°55' E 004°12'0 0.0
2014-Dec-16 12:27N 51°55' E 004°12'0 0.0
2014-Dec-16 11:30N 51°55' E 004°12'0 0.0
2014-Dec-16 10:27N 51°55' E 004°12'0 0.0
2014-Dec-16 09:33N 51°55' E 004°12'0 0.0
2014-Dec-16 08:30N 51°55' E 004°12'0 0.0
2014-Dec-16 07:27N 51°55' E 004°12'0 0.0
2014-Dec-16 06:27N 51°55' E 004°12'0 0.0
2014-Dec-16 05:24N 51°55' E 004°12'0 0.0
2014-Dec-16 03:24N 51°55' E 004°12'0 0.0
2014-Dec-16 02:20N 51°55' E 004°12'0 0.0
2014-Dec-16 01:06N 51°55' E 004°12'0 0.0
2014-Dec-15 23:18N 51°55' E 004°12'0 0.0
2014-Dec-15 22:33N 51°55' E 004°12'0 0.0
2014-Dec-15 21:21N 51°55' E 004°12'0 0.0
2014-Dec-15 20:24N 51°55' E 004°12'3 3.5
2014-Dec-15 19:33N 51°57' E 004°09'1111.5
2014-Dec-15 18:33N 51°60' E 003°50'5 5.0
2014-Dec-15 17:31N 51°56' E 003°44'0 0.1
2014-Dec-15 16:32N 51°56' E 003°44'0 0.0
2014-Dec-15 15:23N 51°56' E 003°44'0 0.0
2014-Dec-15 14:07N 51°56' E 003°44'0 0.0
2014-Dec-15 11:17N 51°56' E 003°44'0 0.0
2014-Dec-15 10:05N 51°56' E 003°44'0 0.0
2014-Dec-15 09:22N 51°56' E 003°44'0 0.0
2014-Dec-15 07:22N 51°56' E 003°44'0 0.0
2014-Dec-15 06:29N 51°56' E 003°44'0 0.0
2014-Dec-15 05:23N 51°56' E 003°44'0 0.0
2014-Dec-15 04:17N 51°56' E 003°44'0 0.0
2014-Dec-15 03:23N 51°56' E 003°44'0 0.0
2014-Dec-15 02:23N 51°56' E 003°44'0 0.0
2014-Dec-15 01:29N 51°56' E 003°44'0 0.0
2014-Dec-15 00:28N 51°56' E 003°44'0 0.0
2014-Dec-14 23:31N 51°56' E 003°44'0 0.0
2014-Dec-14 22:28N 51°56' E 003°44'0 0.0
2014-Dec-14 21:04N 51°56' E 003°44'0 0.0
2014-Dec-14 19:10N 51°56' E 003°44'0 0.0
2014-Dec-14 18:22N 51°56' E 003°44'0 0.0
2014-Dec-14 17:22N 51°56' E 003°44'0 0.0
2014-Dec-14 16:23N 51°56' E 003°44'0 0.0
2014-Dec-14 15:28N 51°56' E 003°44'0 0.0
2014-Dec-14 14:28N 51°56' E 003°44'0 0.0
2014-Dec-14 12:11N 51°56' E 003°44'0 0.0
2014-Dec-14 11:32N 51°56' E 003°44'0 0.0
2014-Dec-14 10:32N 51°56' E 003°44'0 0.0
2014-Dec-14 09:26N 51°56' E 003°44'0 0.0
2014-Dec-14 08:26N 51°56' E 003°44'0 0.0
2014-Dec-14 07:29N 51°56' E 003°44'0 0.0
2014-Dec-14 06:22N 51°56' E 003°44'0 0.0
2014-Dec-14 05:32N 51°56' E 003°44'0 0.0
2014-Dec-14 04:31N 51°56' E 003°44'0 0.1
2014-Dec-14 03:31N 51°56' E 003°44'0 0.1
2014-Dec-14 02:25N 51°56' E 003°44'0 0.0
2014-Dec-14 01:25N 51°56' E 003°44'0 0.0
2014-Dec-13 23:31N 51°56' E 003°44'0 0.0
2014-Dec-13 21:11N 51°56' E 003°44'0 0.0
2014-Dec-13 20:10N 51°56' E 003°44'0 0.0
2014-Dec-13 19:25N 51°56' E 003°44'0 0.0
2014-Dec-13 18:28N 51°56' E 003°44'0 0.0
2014-Dec-13 17:28N 51°56' E 003°44'0 0.1
2014-Dec-13 16:28N 51°56' E 003°44'0 0.1
2014-Dec-13 15:31N 51°56' E 003°44'0 0.0
2014-Dec-13 14:23N 51°56' E 003°44'0 0.0
2014-Dec-13 13:04N 51°56' E 003°44'0 0.0
2014-Dec-13 12:25N 51°56' E 003°44'0 0.0
2014-Dec-13 11:32N 51°56' E 003°44'0 0.1
2014-Dec-13 10:20N 51°56' E 003°44'0 0.0
2014-Dec-13 09:07N 51°56' E 003°44'0 0.0
2014-Dec-13 08:08N 51°56' E 003°44'0 0.0
2014-Dec-13 07:14N 51°56' E 003°44'0 0.0
2014-Dec-13 05:04N 51°56' E 003°44'0 0.1
2014-Dec-13 04:08N 51°56' E 003°44'0 0.0
2014-Dec-13 01:10N 51°56' E 003°44'0 0.0
2014-Dec-13 00:29N 51°56' E 003°44'0 0.0
2014-Dec-12 23:31N 51°56' E 003°44'0 0.0
2014-Dec-12 20:26N 51°56' E 003°44'0 0.0
2014-Dec-12 19:26N 51°56' E 003°44'0 0.0
2014-Dec-12 18:28N 51°56' E 003°44'0 0.0
2014-Dec-12 17:08N 51°56' E 003°44'0 0.0
2014-Dec-12 15:07N 51°56' E 003°44'0 0.0
2014-Dec-12 14:16N 51°56' E 003°44'0 0.0
2014-Dec-12 12:31N 51°56' E 003°44'0 0.1
2014-Dec-12 11:20N 51°56' E 003°44'0 0.0
2014-Dec-12 10:26N 51°56' E 003°44'0 0.0
2014-Dec-12 08:08N 51°56' E 003°44'0 0.2
2014-Dec-12 06:22N 51°56' E 003°43'0 0.1
2014-Dec-12 04:31N 51°56' E 003°44'0 0.0
2014-Dec-12 03:19N 51°56' E 003°43'0 0.0
2014-Dec-12 02:10N 51°56' E 003°43'0 0.0
2014-Dec-11 21:19N 51°56' E 003°44'0 0.0
2014-Dec-11 19:31N 51°56' E 003°43'0 0.0
2014-Dec-11 17:10N 51°56' E 003°43'0 0.2
2014-Dec-11 16:05N 51°56' E 003°43'1 0.5
2014-Dec-11 14:32N 51°56' E 003°44'0 0.1
2014-Dec-11 13:11N 51°56' E 003°44'0 0.0
2014-Dec-11 11:11N 51°56' E 003°44'0 0.1
2014-Dec-11 09:11N 51°56' E 003°44'0 0.0
2014-Dec-11 08:32N 51°56' E 003°44'0 0.1
2014-Dec-11 07:29N 51°56' E 003°44'0 0.1
2014-Dec-11 04:32N 51°56' E 003°44'0 0.1
2014-Dec-11 02:20N 51°56' E 003°44'0 0.1
2014-Dec-10 23:23N 51°56' E 003°43'0 0.0
2014-Dec-10 22:17N 51°56' E 003°44'0 0.1
2014-Dec-10 21:29N 51°56' E 003°44'0 0.0
2014-Dec-10 20:32N 51°56' E 003°44'0 0.0
2014-Dec-10 19:23N 51°56' E 003°44'0 0.0
2014-Dec-10 16:29N 51°56' E 003°44'0 0.0
2014-Dec-10 07:33N 51°56' E 003°44'0 0.1
2014-Dec-10 06:33N 51°56' E 003°44'0 0.0
2014-Dec-10 05:33N 51°56' E 003°43'0 0.0
2014-Dec-10 04:33N 51°56' E 003°43'0 0.0
2014-Dec-10 03:33N 51°56' E 003°43'0 0.2
2014-Dec-10 02:33N 51°56' E 003°44'0 0.0
2014-Dec-10 01:33N 51°56' E 003°44'0 0.0
2014-Dec-10 00:30N 51°56' E 003°44'0 0.1
2014-Dec-09 23:31N 51°56' E 003°44'0 0.0
2014-Dec-09 22:32N 51°56' E 003°44'0 0.0
2014-Dec-09 21:33N 51°56' E 003°44'0 0.0
2014-Dec-09 20:27N 51°56' E 003°44'0 0.0
2014-Dec-09 19:33N 51°56' E 003°44'0 0.0
2014-Dec-09 18:33N 51°56' E 003°44'0 0.0
2014-Dec-09 17:10N 51°56' E 003°44'0 0.0
2014-Dec-09 16:28N 51°56' E 003°44'5611.3
2014-Dec-09 11:33N 51°34' E 002°21'1111.3
2014-Dec-09 10:33N 51°26' E 002°09'  

Dump ship's entire track history